Time;durP1;ratioP1;P1;durP2;ratioP2;P2;SDS_P1;SDS_P2;PMS_P1;PMS_P2;Temp;Humidity;BMP_temperature;BMP_pressure;BME280_temperature;BME280_humidity;BME280_pressure;Samples;Min_cycle;Max_cycle;Signal;HPM_P1;HPM_P2
2024/02/02 00:02:06;;;;;;;29.30;10.53;;;6.50;99.90;;;;;;5074641;28;20191;-84
2024/02/02 00:04:32;;;;;;;24.13;10.00;;;6.60;99.90;;;;;;5074917;28;20606;-84
2024/02/02 00:06:57;;;;;;;24.77;9.47;;;6.50;99.90;;;;;;5074722;28;20176;-85
2024/02/02 00:09:23;;;;;;;25.27;9.07;;;6.60;99.90;;;;;;5074469;28;20215;-85
2024/02/02 00:11:49;;;;;;;26.47;10.10;;;6.60;99.90;;;;;;5075939;28;20190;-84
2024/02/02 00:14:15;;;;;;;27.77;9.80;;;6.70;99.90;;;;;;5075196;28;20518;-84
2024/02/02 00:16:40;;;;;;;27.23;9.27;;;6.60;99.90;;;;;;5078374;28;20167;-85
2024/02/02 00:19:06;;;;;;;25.03;10.17;;;6.60;99.90;;;;;;5078969;28;20259;-85
2024/02/02 00:21:32;;;;;;;25.43;9.67;;;6.50;99.90;;;;;;5096447;28;20167;-84
2024/02/02 00:23:57;;;;;;;28.10;10.53;;;6.40;99.90;;;;;;5078634;28;20215;-85
2024/02/02 00:26:23;;;;;;;22.30;9.50;;;6.40;99.90;;;;;;5078451;28;20180;-84
2024/02/02 00:28:49;;;;;;;23.37;9.90;;;6.40;99.90;;;;;;5079010;28;20687;-84
2024/02/02 00:31:21;;;;;;;22.77;9.03;;;6.30;99.90;;;;;;5082129;28;20198;-84
2024/02/02 00:33:47;;;;;;;22.40;9.37;;;6.30;99.90;;;;;;5082289;28;20179;-85
2024/02/02 00:36:13;;;;;;;23.33;9.70;;;6.20;99.90;;;;;;5077505;28;20693;-84
2024/02/02 00:38:38;;;;;;;20.33;9.10;;;6.20;99.90;;;;;;5078578;28;20179;-83
2024/02/02 00:41:04;;;;;;;19.20;8.83;;;6.20;99.90;;;;;;5078374;28;20530;-85
2024/02/02 00:43:30;;;;;;;22.40;8.73;;;6.30;99.90;;;;;;5078304;28;20754;-84
2024/02/02 00:45:55;;;;;;;21.50;9.07;;;6.40;99.90;;;;;;5078785;28;20164;-84
2024/02/02 00:48:21;;;;;;;25.23;9.73;;;6.30;99.90;;;;;;5096618;28;20627;-84
2024/02/02 00:50:47;;;;;;;23.70;9.73;;;6.30;99.90;;;;;;5080643;28;20248;-84
2024/02/02 00:53:12;;;;;;;28.13;9.73;;;6.20;99.90;;;;;;5078970;28;20164;-85
2024/02/02 00:55:38;;;;;;;22.43;9.43;;;6.20;99.90;;;;;;5095845;28;20336;-85
2024/02/02 00:58:04;;;;;;;21.67;9.87;;;6.20;99.90;;;;;;5078140;28;20203;-86
2024/02/02 01:00:30;;;;;;;19.73;8.50;;;6.20;99.90;;;;;;5077747;28;20264;-85
2024/02/02 01:02:55;;;;;;;25.63;9.70;;;6.30;99.90;;;;;;5077902;28;20333;-85
2024/02/02 01:05:22;;;;;;;21.53;9.20;;;6.20;99.90;;;;;;5077645;28;20172;-85
2024/02/02 01:07:48;;;;;;;27.30;9.70;;;6.30;99.90;;;;;;5096447;28;20168;-85
2024/02/02 01:10:16;;;;;;;21.77;9.27;;;6.30;99.90;;;;;;5078334;28;20172;-85
2024/02/02 01:12:45;;;;;;;23.90;9.70;;;6.30;99.90;;;;;;5077585;28;20262;-85
2024/02/02 01:15:11;;;;;;;24.80;9.40;;;6.30;99.90;;;;;;5078142;28;20176;-85
2024/02/02 01:17:37;;;;;;;28.50;9.97;;;6.30;99.90;;;;;;5095715;28;20267;-84
2024/02/02 01:20:03;;;;;;;24.77;10.17;;;6.50;99.90;;;;;;5077785;28;20178;-84
2024/02/02 01:22:33;;;;;;;25.17;9.73;;;6.50;99.90;;;;;;5076964;28;20203;-85
2024/02/02 01:24:59;;;;;;;21.10;10.20;;;6.40;99.90;;;;;;5077545;28;20275;-85
2024/02/02 01:27:25;;;;;;;26.77;10.20;;;6.30;99.90;;;;;;5075969;28;20179;-85
2024/02/02 01:29:50;;;;;;;26.27;8.80;;;6.20;99.90;;;;;;5077214;28;20588;-85
2024/02/02 01:32:16;;;;;;;26.47;10.43;;;6.30;99.90;;;;;;5077875;28;20620;-85
2024/02/02 01:34:42;;;;;;;26.50;9.90;;;6.20;99.90;;;;;;5077277;28;20168;-84
2024/02/02 01:37:08;;;;;;;25.17;10.20;;;6.40;99.90;;;;;;5077091;28;20693;-84
2024/02/02 01:39:34;;;;;;;23.63;10.53;;;6.40;99.90;;;;;;5077418;28;20658;-87
2024/02/02 01:42:00;;;;;;;26.30;10.57;;;6.40;99.90;;;;;;5077526;28;20171;-84
2024/02/02 01:44:26;;;;;;;21.77;10.40;;;6.30;99.90;;;;;;5076687;28;20211;-85
2024/02/02 01:46:52;;;;;;;27.60;9.67;;;6.40;99.90;;;;;;5077583;28;20171;-86
2024/02/02 01:49:18;;;;;;;22.00;9.67;;;6.20;99.90;;;;;;5077241;28;20187;-84
2024/02/02 01:51:44;;;;;;;24.37;9.67;;;6.20;99.90;;;;;;5080194;28;20179;-85
2024/02/02 01:54:10;;;;;;;27.77;10.37;;;6.20;99.90;;;;;;5079869;28;20174;-83
2024/02/02 01:56:36;;;;;;;24.10;10.10;;;6.20;99.90;;;;;;5077487;28;20195;-85
2024/02/02 01:59:03;;;;;;;26.57;11.27;;;6.20;99.90;;;;;;5094531;28;20207;-85
2024/02/02 02:01:30;;;;;;;27.97;10.33;;;6.30;99.90;;;;;;5076261;28;20171;-85
2024/02/02 02:03:56;;;;;;;24.67;11.10;;;6.20;99.90;;;;;;5076884;28;20572;-84
2024/02/02 02:06:22;;;;;;;24.30;9.23;;;6.20;99.90;;;;;;5077020;28;20167;-85
2024/02/02 02:08:48;;;;;;;25.57;10.63;;;6.20;99.90;;;;;;5077357;28;20226;-85
2024/02/02 02:11:14;;;;;;;24.37;11.13;;;6.20;99.90;;;;;;5077052;28;20199;-84
2024/02/02 02:13:40;;;;;;;21.57;10.03;;;6.20;99.90;;;;;;5076945;28;20175;-84
2024/02/02 02:16:07;;;;;;;22.20;10.33;;;6.30;99.90;;;;;;5077357;28;20177;-85
2024/02/02 02:18:33;;;;;;;26.90;10.17;;;6.50;99.90;;;;;;5077140;28;20168;-83
2024/02/02 02:21:02;;;;;;;26.17;11.30;;;6.40;99.90;;;;;;5076896;28;20171;-85
2024/02/02 02:23:27;;;;;;;23.93;10.30;;;6.30;99.90;;;;;;5084431;28;20203;-84
2024/02/02 02:25:53;;;;;;;22.47;10.53;;;6.30;99.90;;;;;;5085852;28;20243;-84
2024/02/02 02:28:19;;;;;;;21.47;10.57;;;6.20;99.90;;;;;;5083103;28;20186;-85
2024/02/02 02:30:46;;;;;;;23.17;10.80;;;6.20;99.90;;;;;;5076751;28;20172;-85
2024/02/02 02:33:11;;;;;;;25.17;10.87;;;6.20;99.90;;;;;;5076505;28;20179;-86
2024/02/02 02:35:37;;;;;;;25.20;11.03;;;6.10;99.90;;;;;;5094260;28;20252;-84
2024/02/02 02:38:04;;;;;;;19.80;10.33;;;6.20;99.90;;;;;;5075598;28;20183;-84
2024/02/02 02:40:29;;;;;;;23.90;11.13;;;6.30;99.90;;;;;;5076116;28;20202;-85
2024/02/02 02:42:55;;;;;;;23.97;10.73;;;6.30;99.90;;;;;;5076422;28;20557;-84
2024/02/02 02:45:22;;;;;;;23.80;10.90;;;6.20;99.90;;;;;;5076759;28;20172;-85
2024/02/02 02:47:48;;;;;;;21.77;10.47;;;6.10;99.90;;;;;;5076536;28;20178;-84
2024/02/02 02:50:14;;;;;;;27.87;10.77;;;6.10;99.90;;;;;;5075750;28;20177;-84
2024/02/02 02:52:40;;;;;;;25.20;10.67;;;6.10;99.90;;;;;;5076885;28;20175;-84
2024/02/02 02:55:06;;;;;;;24.47;10.73;;;6.10;99.90;;;;;;5091191;28;20228;-83
2024/02/02 02:57:32;;;;;;;27.23;11.37;;;6.00;99.90;;;;;;5087571;28;20219;-83
2024/02/02 02:59:57;;;;;;;23.97;9.70;;;6.00;99.90;;;;;;5093850;28;20218;-84
2024/02/02 03:02:23;;;;;;;23.03;9.57;;;6.10;99.90;;;;;;5093576;28;20607;-85
2024/02/02 03:04:49;;;;;;;22.70;10.33;;;6.00;99.90;;;;;;5075410;28;20175;-83
2024/02/02 03:07:14;;;;;;;25.23;10.00;;;6.00;99.90;;;;;;5075587;28;20175;-84
2024/02/02 03:09:40;;;;;;;24.97;9.97;;;6.10;99.90;;;;;;5075479;28;20266;-83
2024/02/02 03:12:06;;;;;;;19.47;9.63;;;6.10;98.70;;;;;;5076216;28;20171;-83
2024/02/02 03:14:32;;;;;;;23.20;9.83;;;6.10;97.70;;;;;;5083629;28;20591;-84
2024/02/02 03:16:57;;;;;;;20.50;8.93;;;6.10;97.00;;;;;;5078536;28;20639;-85
2024/02/02 03:19:23;;;;;;;17.73;8.20;;;6.10;96.80;;;;;;5075476;28;20179;-84
2024/02/02 03:21:49;;;;;;;15.90;8.97;;;6.10;95.90;;;;;;5075080;28;20627;-84
2024/02/02 03:24:14;;;;;;;20.53;9.13;;;6.20;94.50;;;;;;5075284;28;20667;-84
2024/02/02 03:26:41;;;;;;;23.80;8.33;;;6.20;92.40;;;;;;5074840;28;20232;-88
2024/02/02 03:29:07;;;;;;;18.63;8.20;;;6.10;92.50;;;;;;5075382;28;20180;-85
2024/02/02 03:31:33;;;;;;;20.77;8.93;;;6.00;94.70;;;;;;5075342;28;20555;-85
2024/02/02 03:33:59;;;;;;;23.63;8.17;;;5.90;96.70;;;;;;5075096;28;20177;-83
2024/02/02 03:36:24;;;;;;;20.73;8.87;;;6.00;96.30;;;;;;5074531;28;20168;-85
2024/02/02 03:38:50;;;;;;;18.60;8.37;;;6.00;95.60;;;;;;5076265;28;20265;-84
2024/02/02 03:41:17;;;;;;;22.23;9.07;;;5.90;96.80;;;;;;5076220;28;20293;-84
2024/02/02 03:43:43;;;;;;;21.93;8.47;;;5.90;98.80;;;;;;5075685;28;20211;-85
2024/02/02 03:46:09;;;;;;;18.60;8.70;;;6.00;98.60;;;;;;5074974;28;20539;-85
2024/02/02 03:48:34;;;;;;;22.00;8.67;;;6.00;97.80;;;;;;5074710;28;20258;-84
2024/02/02 03:51:00;;;;;;;28.00;8.27;;;6.00;98.00;;;;;;5074929;28;20194;-84
2024/02/02 03:53:26;;;;;;;20.30;8.27;;;5.90;98.40;;;;;;5075306;28;20485;-84
2024/02/02 03:55:51;;;;;;;19.90;8.20;;;5.80;99.90;;;;;;5074880;28;20175;-84
2024/02/02 03:58:18;;;;;;;18.50;8.30;;;5.90;99.90;;;;;;5074161;28;20222;-85
2024/02/02 04:00:44;;;;;;;24.23;8.60;;;5.90;99.90;;;;;;5074339;28;20205;-84
2024/02/02 04:03:10;;;;;;;23.80;9.30;;;6.00;98.70;;;;;;5074710;28;20204;-84
2024/02/02 04:05:36;;;;;;;18.93;8.17;;;5.90;99.50;;;;;;5075318;28;20202;-85
2024/02/02 04:08:02;;;;;;;15.77;8.10;;;5.90;99.90;;;;;;5074979;28;20207;-85
2024/02/02 04:10:28;;;;;;;18.53;7.70;;;6.00;99.90;;;;;;5074683;28;20524;-84
2024/02/02 04:12:53;;;;;;;17.77;7.80;;;6.00;98.50;;;;;;5073999;28;20202;-85
2024/02/02 04:15:19;;;;;;;18.57;8.33;;;6.00;99.10;;;;;;5074698;28;20184;-85
2024/02/02 04:17:45;;;;;;;14.97;7.87;;;5.90;99.90;;;;;;5074158;28;20167;-84
2024/02/02 04:20:11;;;;;;;17.50;7.30;;;5.90;99.90;;;;;;5074674;28;20663;-84
2024/02/02 04:22:36;;;;;;;20.20;7.23;;;5.90;99.90;;;;;;5092634;28;20187;-83
2024/02/02 04:25:02;;;;;;;23.40;8.00;;;5.90;99.90;;;;;;5074736;28;20172;-84
2024/02/02 04:27:28;;;;;;;18.60;7.87;;;5.90;99.90;;;;;;5092425;28;20167;-85
2024/02/02 04:29:53;;;;;;;15.47;7.70;;;5.80;99.90;;;;;;5075047;28;20203;-84
2024/02/02 04:32:19;;;;;;;20.17;8.37;;;5.80;99.90;;;;;;5074998;28;20180;-84
2024/02/02 04:34:45;;;;;;;20.50;7.37;;;5.80;99.90;;;;;;5074738;28;20607;-84
2024/02/02 04:37:10;;;;;;;18.13;7.70;;;5.90;99.40;;;;;;5074438;28;20179;-84
2024/02/02 04:39:36;;;;;;;15.20;7.43;;;5.80;99.10;;;;;;5073432;28;20852;-84
2024/02/02 04:42:02;;;;;;;17.73;7.83;;;5.80;99.40;;;;;;5074657;28;20178;-83
2024/02/02 04:44:28;;;;;;;19.10;7.43;;;5.80;99.20;;;;;;5073877;28;20207;-84
2024/02/02 04:46:53;;;;;;;20.10;7.60;;;5.70;99.90;;;;;;5073852;28;20176;-84
2024/02/02 04:49:19;;;;;;;18.53;7.67;;;5.60;99.90;;;;;;5073835;28;20176;-84
2024/02/02 04:51:45;;;;;;;17.07;6.80;;;5.70;99.90;;;;;;5074273;28;20175;-84
2024/02/02 04:54:11;;;;;;;19.90;7.63;;;5.60;99.90;;;;;;5074430;28;20638;-83
2024/02/02 04:56:36;;;;;;;18.90;7.50;;;5.60;99.90;;;;;;5074365;28;20164;-84
2024/02/02 04:59:03;;;;;;;17.77;6.50;;;5.60;99.90;;;;;;5073901;28;20200;-85
2024/02/02 05:01:29;;;;;;;20.73;7.13;;;5.70;99.90;;;;;;5076004;28;20195;-83
2024/02/02 05:03:54;;;;;;;13.63;6.63;;;5.70;99.90;;;;;;5077539;28;20245;-85
2024/02/02 05:06:22;;;;;;;14.97;6.37;;;5.70;99.90;;;;;;5077604;28;20646;-84
2024/02/02 05:08:47;;;;;;;17.77;6.83;;;5.60;99.90;;;;;;5077350;28;20181;-84
2024/02/02 05:11:13;;;;;;;17.30;6.07;;;5.80;99.90;;;;;;5077568;28;20600;-84
2024/02/02 05:13:39;;;;;;;16.93;6.60;;;5.70;99.90;;;;;;5095470;28;20168;-84
2024/02/02 05:16:05;;;;;;;17.30;6.57;;;5.70;99.90;;;;;;5095778;28;20195;-86
2024/02/02 05:18:31;;;;;;;18.67;5.93;;;5.80;99.90;;;;;;5078023;28;20171;-84
2024/02/02 05:20:56;;;;;;;21.63;6.57;;;5.80;99.90;;;;;;5077377;28;20579;-84
2024/02/02 05:23:24;;;;;;;19.03;6.17;;;5.90;99.90;;;;;;5077696;28;20682;-83
2024/02/02 05:25:49;;;;;;;15.77;6.10;;;5.90;99.90;;;;;;5076877;28;20176;-84
2024/02/02 05:28:15;;;;;;;17.73;6.27;;;5.90;99.90;;;;;;5076805;28;20640;-84
2024/02/02 05:30:41;;;;;;;21.33;6.53;;;5.80;99.90;;;;;;5077607;28;20172;-84
2024/02/02 05:33:06;;;;;;;19.63;6.13;;;5.90;99.90;;;;;;5095037;28;20582;-83
2024/02/02 05:35:32;;;;;;;15.47;4.80;;;6.10;99.90;;;;;;5076992;28;20210;-84
2024/02/02 05:37:59;;;;;;;15.27;5.73;;;6.00;99.60;;;;;;5076134;28;20632;-84
2024/02/02 05:40:24;;;;;;;15.23;5.00;;;6.00;99.90;;;;;;5076363;28;20185;-85
2024/02/02 05:42:50;;;;;;;15.87;5.43;;;5.80;99.90;;;;;;5095297;28;20655;-85
2024/02/02 05:45:16;;;;;;;21.37;6.07;;;5.90;99.90;;;;;;5077105;28;20635;-85
2024/02/02 05:47:41;;;;;;;16.97;4.97;;;5.90;99.90;;;;;;5077785;28;20178;-83
2024/02/02 05:50:07;;;;;;;15.47;4.80;;;5.80;99.90;;;;;;5077436;28;20176;-85
2024/02/02 05:52:33;;;;;;;16.10;5.00;;;5.70;99.90;;;;;;5077221;28;20180;-83
2024/02/02 05:54:59;;;;;;;16.17;5.23;;;5.60;99.90;;;;;;5076836;28;20171;-85
2024/02/02 05:57:24;;;;;;;14.13;4.83;;;5.70;99.90;;;;;;5076822;28;20647;-85
2024/02/02 05:59:51;;;;;;;19.30;5.23;;;5.70;99.90;;;;;;5095340;28;20188;-85
2024/02/02 06:02:17;;;;;;;20.77;5.13;;;5.80;99.90;;;;;;5077380;28;20179;-84
2024/02/02 06:04:43;;;;;;;16.13;5.33;;;5.80;99.90;;;;;;5077242;28;20186;-84
2024/02/02 06:07:08;;;;;;;16.33;5.53;;;5.80;99.90;;;;;;5096157;28;20198;-86
2024/02/02 06:09:34;;;;;;;17.23;5.40;;;5.80;99.90;;;;;;5083534;28;20263;-83
2024/02/02 06:11:59;;;;;;;16.87;5.13;;;5.80;99.90;;;;;;5091060;28;20674;-83
2024/02/02 06:14:27;;;;;;;19.43;6.37;;;5.80;99.90;;;;;;5079344;28;20533;-84
2024/02/02 06:16:53;;;;;;;15.03;4.80;;;5.70;99.90;;;;;;5077295;28;20202;-85
2024/02/02 06:19:19;;;;;;;17.13;5.23;;;5.70;99.90;;;;;;5077545;28;20175;-86
2024/02/02 06:21:44;;;;;;;17.80;4.67;;;5.80;99.90;;;;;;5079028;28;20252;-86
2024/02/02 06:24:10;;;;;;;20.67;5.20;;;5.80;99.90;;;;;;5082709;28;20242;-85
2024/02/02 06:26:36;;;;;;;18.97;6.13;;;5.80;99.90;;;;;;5082318;28;20168;-84
2024/02/02 06:29:03;;;;;;;16.07;4.80;;;5.80;99.90;;;;;;5078339;28;20183;-84
2024/02/02 06:31:29;;;;;;;15.70;4.63;;;5.90;99.90;;;;;;5075326;28;20272;-84
2024/02/02 06:33:55;;;;;;;14.00;4.93;;;5.90;99.90;;;;;;5075580;28;20230;-84
2024/02/02 06:36:26;;;;;;;15.83;4.43;;;5.90;99.90;;;;;;5076505;28;20178;-85
2024/02/02 06:38:57;;;;;;;16.83;5.03;;;5.80;99.90;;;;;;5075606;28;20207;-86
2024/02/02 06:41:23;;;;;;;14.80;4.60;;;5.70;99.90;;;;;;5075718;28;20285;-85
2024/02/02 06:43:48;;;;;;;19.70;4.83;;;5.70;99.90;;;;;;5076132;28;20246;-85
2024/02/02 06:46:14;;;;;;;16.67;5.20;;;5.80;99.90;;;;;;5078077;28;20658;-85
2024/02/02 06:48:42;;;;;;;12.97;4.87;;;5.70;99.90;;;;;;5095920;28;20280;-84
2024/02/02 06:51:08;;;;;;;18.90;5.10;;;5.60;99.90;;;;;;5094986;28;20173;-87
2024/02/02 06:53:35;;;;;;;19.33;4.67;;;5.60;99.90;;;;;;5095402;28;20707;-86
2024/02/02 06:56:01;;;;;;;17.13;4.33;;;5.60;99.90;;;;;;5095500;28;20296;-85
2024/02/02 06:58:44;;;;;;;16.07;4.57;;;5.60;99.90;;;;;;5095866;28;20290;-86
2024/02/02 07:01:10;;;;;;;16.63;4.43;;;5.60;99.90;;;;;;5095784;28;20630;-84
2024/02/02 07:03:37;;;;;;;18.80;5.50;;;5.60;99.90;;;;;;5095726;28;20208;-85
2024/02/02 07:06:06;;;;;;;19.37;5.27;;;5.60;99.90;;;;;;5114002;28;20474;-86
2024/02/02 07:08:32;;;;;;;18.17;4.80;;;5.60;99.90;;;;;;5095717;28;20183;-87
2024/02/02 07:11:13;;;;;;;15.77;4.80;;;5.50;99.90;;;;;;5095191;28;20178;-85
2024/02/02 07:13:52;;;;;;;16.73;4.70;;;5.50;99.90;;;;;;5094904;28;20197;-85
2024/02/02 07:16:27;;;;;;;17.57;4.53;;;5.60;99.90;;;;;;5095591;28;20170;-86
2024/02/02 07:18:53;;;;;;;14.80;5.07;;;5.60;99.90;;;;;;5096289;28;20170;-84
2024/02/02 07:21:20;;;;;;;20.00;4.47;;;5.50;99.90;;;;;;5094128;28;20198;-86
2024/02/02 07:23:46;;;;;;;13.60;4.53;;;5.60;99.90;;;;;;5095215;28;20210;-84
2024/02/02 07:26:26;;;;;;;12.90;5.40;;;5.50;99.90;;;;;;5095310;28;20646;-85
2024/02/02 07:28:52;;;;;;;14.37;4.63;;;5.50;99.90;;;;;;5095009;28;20205;-83
2024/02/02 07:31:36;;;;;;;17.17;4.37;;;5.50;99.90;;;;;;5094860;28;20530;-85
2024/02/02 07:34:40;;;;;;;14.73;4.80;;;5.50;99.90;;;;;;5083814;28;20223;-85
2024/02/02 07:37:10;;;;;;;15.40;4.67;;;5.50;99.90;;;;;;5102082;28;20274;-86
2024/02/02 07:39:36;;;;;;;17.33;4.83;;;5.60;99.90;;;;;;5084512;28;20178;-86
2024/02/02 07:42:02;;;;;;;17.63;4.80;;;5.60;99.90;;;;;;5095532;28;20174;-87
2024/02/02 07:44:27;;;;;;;17.43;5.00;;;5.60;99.90;;;;;;5094007;28;20303;-85
2024/02/02 07:46:53;;;;;;;18.50;5.00;;;5.70;99.90;;;;;;5095159;28;20171;-85
2024/02/02 07:49:19;;;;;;;20.17;5.93;;;5.70;99.90;;;;;;5113754;28;20166;-86
2024/02/02 07:51:45;;;;;;;16.23;5.57;;;5.80;99.90;;;;;;5095105;28;20174;-86
2024/02/02 07:54:11;;;;;;;21.57;6.20;;;5.80;99.90;;;;;;5095525;28;20170;-84
2024/02/02 07:56:37;;;;;;;15.57;4.50;;;5.90;99.90;;;;;;5082366;28;20179;-84
2024/02/02 07:59:03;;;;;;;18.57;5.27;;;5.80;99.90;;;;;;5093917;28;20194;-85
2024/02/02 08:01:32;;;;;;;14.97;5.13;;;5.80;99.90;;;;;;5094931;28;20174;-84
2024/02/02 08:03:59;;;;;;;15.10;5.33;;;5.90;99.90;;;;;;5094823;28;20225;-85
2024/02/02 08:06:25;;;;;;;16.60;5.20;;;5.90;99.90;;;;;;5095431;28;20185;-85
2024/02/02 08:08:51;;;;;;;16.67;5.20;;;5.90;99.90;;;;;;5094206;28;20175;-84
2024/02/02 08:11:17;;;;;;;19.60;5.77;;;5.90;99.90;;;;;;5094000;28;20274;-84
2024/02/02 08:13:43;;;;;;;13.67;5.33;;;5.80;99.90;;;;;;5095103;28;20944;-84
2024/02/02 08:16:09;;;;;;;17.37;6.20;;;5.90;99.90;;;;;;5112509;28;20201;-85
2024/02/02 08:18:36;;;;;;;19.37;5.13;;;5.90;99.90;;;;;;5094009;28;20627;-86
2024/02/02 08:21:02;;;;;;;20.40;6.00;;;5.90;99.90;;;;;;5094272;28;20731;-84
2024/02/02 08:23:28;;;;;;;18.70;7.00;;;5.90;99.90;;;;;;5094302;28;20281;-85
2024/02/02 08:25:54;;;;;;;21.87;6.00;;;5.90;99.90;;;;;;5094729;28;20244;-85
2024/02/02 08:28:20;;;;;;;20.27;6.17;;;5.90;99.90;;;;;;5095011;28;20624;-83
2024/02/02 08:30:46;;;;;;;22.37;6.47;;;6.00;99.90;;;;;;5094709;28;20710;-86
2024/02/02 08:33:13;;;;;;;17.13;6.63;;;6.00;99.90;;;;;;5094552;28;20211;-85
2024/02/02 08:35:39;;;;;;;20.97;7.40;;;6.00;99.90;;;;;;5113552;28;20182;-85
2024/02/02 08:38:07;;;;;;;21.23;7.87;;;5.90;99.90;;;;;;5097688;28;20646;-86
2024/02/02 08:40:39;;;;;;;17.63;7.33;;;6.00;99.90;;;;;;5098425;28;20182;-84
2024/02/02 08:43:10;;;;;;;19.67;7.13;;;6.00;99.90;;;;;;5098232;28;20227;-85
2024/02/02 08:45:42;;;;;;;20.87;7.50;;;6.10;99.90;;;;;;5116827;28;20642;-85
2024/02/02 08:48:22;;;;;;;17.37;8.17;;;6.10;99.90;;;;;;5098638;28;20179;-84
2024/02/02 08:50:50;;;;;;;18.67;8.57;;;6.20;99.90;;;;;;5098530;28;20166;-85
2024/02/02 08:53:16;;;;;;;22.83;9.33;;;6.20;99.90;;;;;;5098679;28;20283;-84
2024/02/02 08:55:47;;;;;;;27.60;10.07;;;6.20;99.90;;;;;;5098472;28;20178;-85
2024/02/02 08:58:29;;;;;;;23.60;8.97;;;6.30;99.90;;;;;;5116251;28;20194;-85
2024/02/02 09:00:55;;;;;;;24.80;9.60;;;6.30;99.90;;;;;;5098754;28;20183;-84
2024/02/02 09:03:23;;;;;;;19.93;10.13;;;6.30;99.90;;;;;;5108894;28;20222;-85
2024/02/02 09:05:57;;;;;;;19.70;9.80;;;6.40;99.90;;;;;;5102248;28;20194;-86
2024/02/02 09:08:35;;;;;;;25.70;10.33;;;6.30;99.90;;;;;;5098305;28;20646;-86
2024/02/02 09:11:02;;;;;;;21.63;10.10;;;6.50;99.90;;;;;;5098616;28;20178;-86
2024/02/02 09:13:34;;;;;;;26.37;9.93;;;6.50;99.90;;;;;;5098624;28;20542;-85
2024/02/02 09:16:00;;;;;;;19.73;9.63;;;6.40;99.90;;;;;;5098207;28;20237;-84
2024/02/02 09:18:40;;;;;;;21.20;9.97;;;6.40;99.90;;;;;;5097963;28;20189;-85
2024/02/02 09:21:10;;;;;;;22.03;9.17;;;6.40;99.90;;;;;;5098179;28;20180;-84
2024/02/02 09:23:39;;;;;;;24.90;11.30;;;6.30;99.90;;;;;;5083067;28;20218;-85
2024/02/02 09:26:11;;;;;;;25.97;10.30;;;6.20;99.90;;;;;;5100779;28;20182;-85
2024/02/02 09:28:41;;;;;;;21.97;10.83;;;6.30;99.90;;;;;;5097589;28;20617;-84
2024/02/02 09:31:10;;;;;;;20.13;10.27;;;6.40;99.90;;;;;;5098016;28;20643;-83
2024/02/02 09:33:49;;;;;;;25.90;11.53;;;6.30;99.90;;;;;;5115994;28;20163;-85
2024/02/02 09:36:15;;;;;;;23.70;10.17;;;6.30;99.90;;;;;;5097565;28;20171;-88
2024/02/02 09:38:54;;;;;;;28.83;11.33;;;6.40;99.90;;;;;;5097747;28;20171;-85
2024/02/02 09:41:42;;;;;;;29.17;11.63;;;6.50;99.90;;;;;;5097328;28;20169;-85
2024/02/02 09:44:41;;;;;;;24.93;11.80;;;6.40;99.90;;;;;;5097416;28;20316;-85
2024/02/02 09:47:38;;;;;;;29.77;11.60;;;6.50;99.90;;;;;;5097576;28;20622;-85
2024/02/02 09:50:34;;;;;;;28.50;11.80;;;6.50;99.90;;;;;;5097059;28;20206;-85
2024/02/02 09:53:24;;;;;;;26.47;11.30;;;6.50;99.90;;;;;;5097093;28;20662;-85
2024/02/02 09:56:00;;;;;;;27.53;11.73;;;6.50;99.90;;;;;;5097335;28;20178;-85
2024/02/02 09:58:37;;;;;;;28.40;12.63;;;6.60;99.90;;;;;;5097080;28;20198;-84
2024/02/02 10:01:28;;;;;;;35.23;13.00;;;6.60;99.90;;;;;;5097302;28;20182;-85
2024/02/02 10:04:17;;;;;;;27.43;12.43;;;6.70;99.90;;;;;;5096694;28;20248;-85
2024/02/02 10:06:42;;;;;;;31.97;12.33;;;6.70;99.90;;;;;;5083753;28;20330;-86
2024/02/02 10:09:19;;;;;;;28.50;12.63;;;6.70;99.90;;;;;;5096801;28;20191;-84
2024/02/02 10:12:06;;;;;;;25.03;13.57;;;6.70;99.90;;;;;;5096955;28;20173;-86
2024/02/02 10:14:31;;;;;;;27.97;12.77;;;6.70;99.90;;;;;;5097002;28;20220;-85
2024/02/02 10:17:09;;;;;;;33.83;13.80;;;6.70;99.90;;;;;;5115019;28;20175;-85
2024/02/02 10:19:54;;;;;;;31.93;13.00;;;6.80;99.90;;;;;;5097821;28;20175;-84
2024/02/02 10:22:38;;;;;;;31.37;13.70;;;6.80;99.90;;;;;;5096924;28;20250;-85
2024/02/02 10:25:23;;;;;;;39.37;15.60;;;6.80;99.90;;;;;;5101631;28;20189;-85
2024/02/02 10:28:01;;;;;;;32.33;14.53;;;6.90;99.90;;;;;;5102989;28;20171;-85
2024/02/02 10:30:57;;;;;;;35.80;15.70;;;7.00;99.90;;;;;;5104766;28;20195;-86
2024/02/02 10:33:29;;;;;;;36.77;15.23;;;7.00;99.90;;;;;;5062119;28;20565;-85
2024/02/02 10:36:00;;;;;;;35.37;16.60;;;7.00;99.90;;;;;;5096091;28;20174;-86
2024/02/02 10:38:59;;;;;;;43.20;16.70;;;7.10;99.90;;;;;;5096326;28;20173;-87
2024/02/02 10:41:58;;;;;;;41.90;16.63;;;7.10;99.90;;;;;;5096180;28;20266;-86
2024/02/02 10:44:49;;;;;;;40.13;17.60;;;7.20;99.90;;;;;;5096456;28;20217;-86
2024/02/02 10:47:43;;;;;;;40.37;16.20;;;7.20;99.90;;;;;;5100361;28;20167;-86
2024/02/02 10:50:23;;;;;;;41.97;16.47;;;7.20;99.90;;;;;;5102490;28;20251;-84
2024/02/02 10:53:08;;;;;;;32.00;17.97;;;7.20;99.90;;;;;;5096023;28;20229;-85
2024/02/02 10:55:37;;;;;;;31.63;16.57;;;7.30;99.90;;;;;;5114346;28;20276;-83
2024/02/02 10:58:12;;;;;;;34.43;17.33;;;7.30;99.90;;;;;;5095565;28;20519;-83
2024/02/02 11:00:47;;;;;;;39.57;17.30;;;7.30;99.90;;;;;;5099100;28;20200;-86
2024/02/02 11:03:40;;;;;;;47.23;16.73;;;7.30;99.90;;;;;;5095686;28;20238;-86
2024/02/02 11:06:35;;;;;;;30.27;16.73;;;7.30;99.90;;;;;;5095623;28;20167;-86
2024/02/02 11:09:31;;;;;;;36.23;19.20;;;7.30;99.90;;;;;;5074491;28;20186;-85
2024/02/02 11:12:14;;;;;;;37.73;18.10;;;7.40;99.90;;;;;;5095847;28;20264;-85
2024/02/02 11:14:57;;;;;;;33.47;18.13;;;7.40;99.90;;;;;;5095505;28;20277;-85
2024/02/02 11:17:33;;;;;;;36.33;16.87;;;7.40;99.90;;;;;;5095171;28;20166;-86
2024/02/02 11:20:17;;;;;;;41.23;19.03;;;7.50;99.90;;;;;;5095051;28;20270;-86
2024/02/02 11:23:01;;;;;;;43.23;19.20;;;7.50;99.90;;;;;;5095380;28;20167;-84
2024/02/02 11:25:38;;;;;;;41.23;16.47;;;7.50;99.90;;;;;;5114958;28;20218;-85
2024/02/02 11:28:09;;;;;;;38.37;19.50;;;7.50;99.90;;;;;;5095816;28;20238;-83
2024/02/02 11:31:06;;;;;;;47.07;20.60;;;7.60;99.90;;;;;;5095045;28;20167;-86
2024/02/02 11:33:47;;;;;;;38.27;19.13;;;7.60;99.90;;;;;;5095397;28;20277;-86
2024/02/02 11:36:32;;;;;;;45.73;19.97;;;7.70;99.90;;;;;;5095111;28;20181;-86
2024/02/02 11:39:09;;;;;;;40.93;19.03;;;7.70;99.90;;;;;;5094855;28;20186;-87
2024/02/02 11:41:37;;;;;;;36.73;19.07;;;7.70;99.90;;;;;;5095368;28;20175;-85
2024/02/02 11:44:04;;;;;;;37.50;19.97;;;7.80;99.90;;;;;;5094817;28;20205;-87
2024/02/02 11:46:35;;;;;;;38.33;21.23;;;7.80;99.90;;;;;;5094735;28;20167;-86
2024/02/02 11:49:16;;;;;;;40.80;20.23;;;7.80;99.90;;;;;;5095387;28;20179;-86
2024/02/02 11:51:52;;;;;;;44.00;22.13;;;7.80;99.90;;;;;;5095951;28;20177;-85
2024/02/02 11:54:35;;;;;;;39.30;20.87;;;7.90;99.90;;;;;;5097082;28;20170;-85
2024/02/02 11:57:04;;;;;;;41.93;20.83;;;7.90;99.90;;;;;;5096780;28;20202;-85
2024/02/02 11:59:33;;;;;;;40.17;20.63;;;7.90;99.90;;;;;;5094776;28;20190;-85
2024/02/02 12:02:08;;;;;;;33.93;18.67;;;8.00;99.90;;;;;;5094481;28;20273;-86
2024/02/02 12:04:45;;;;;;;33.23;19.97;;;8.00;99.90;;;;;;5094747;28;20747;-86
2024/02/02 12:07:21;;;;;;;41.90;19.23;;;8.00;99.90;;;;;;5094852;28;20199;-84
2024/02/02 12:09:50;;;;;;;40.20;21.50;;;8.00;99.90;;;;;;5094851;28;20171;-86
2024/02/02 12:12:23;;;;;;;35.07;19.60;;;7.90;99.90;;;;;;5098402;28;20259;-85
2024/02/02 12:14:52;;;;;;;37.57;19.80;;;7.90;99.90;;;;;;5098862;28;20198;-84
2024/02/02 12:17:21;;;;;;;38.17;22.03;;;7.90;99.90;;;;;;5099049;28;20262;-85
2024/02/02 12:19:47;;;;;;;48.17;23.80;;;7.90;99.90;;;;;;5099457;28;20201;-85
2024/02/02 12:22:13;;;;;;;40.93;21.10;;;7.80;99.90;;;;;;5098902;28;20214;-87
2024/02/02 12:24:40;;;;;;;39.70;20.87;;;7.80;99.90;;;;;;5098841;28;20213;-85
2024/02/02 12:27:08;;;;;;;42.23;22.10;;;7.80;99.90;;;;;;5099021;28;20232;-84
2024/02/02 12:29:36;;;;;;;38.07;21.60;;;7.90;99.90;;;;;;5100086;28;20167;-81
2024/02/02 12:32:03;;;;;;;37.17;21.07;;;7.90;99.90;;;;;;5102630;28;20171;-83
2024/02/02 12:34:29;;;;;;;37.57;21.17;;;7.90;99.90;;;;;;5100181;28;20205;-85
2024/02/02 12:36:58;;;;;;;39.60;21.97;;;7.90;99.90;;;;;;5098440;28;20295;-85
2024/02/02 12:39:31;;;;;;;37.03;22.43;;;7.80;99.90;;;;;;5098811;28;20179;-85
2024/02/02 12:42:02;;;;;;;36.73;21.57;;;7.80;99.90;;;;;;5098604;28;20178;-86
2024/02/02 12:44:29;;;;;;;38.23;22.53;;;7.90;99.90;;;;;;5097929;28;20266;-86
2024/02/02 12:46:55;;;;;;;35.57;21.87;;;7.80;99.90;;;;;;5098623;28;20247;-86
2024/02/02 12:49:23;;;;;;;37.00;21.37;;;7.90;99.90;;;;;;5099484;28;20174;-85
2024/02/02 12:51:49;;;;;;;32.50;21.40;;;8.00;99.90;;;;;;5098696;28;20213;-85
2024/02/02 12:54:15;;;;;;;36.60;23.07;;;8.00;99.90;;;;;;5098515;28;20171;-85
2024/02/02 12:56:42;;;;;;;35.03;23.60;;;8.10;99.90;;;;;;5098540;28;20171;-85